createdAt,value
2017-08-26T00:04:45.931Z,43.53
2017-08-26T00:07:14.171Z,51.87
2017-08-26T00:09:40.474Z,40.93
2017-08-26T00:12:06.684Z,38.57
2017-08-26T00:14:32.865Z,53.37
2017-08-26T00:16:59.008Z,42.90
2017-08-26T00:19:25.144Z,50.30
2017-08-26T00:21:51.430Z,50.20
2017-08-26T00:24:18.427Z,42.73
2017-08-26T00:26:44.670Z,42.33
2017-08-26T00:29:10.821Z,46.60
2017-08-26T00:31:37.101Z,47.07
2017-08-26T00:34:03.310Z,69.93
2017-08-26T00:36:29.519Z,52.77
2017-08-26T00:38:55.676Z,44.47
2017-08-26T00:41:21.838Z,40.17
2017-08-26T00:43:48.120Z,43.10
2017-08-26T00:46:14.268Z,48.07
2017-08-26T00:48:40.524Z,45.10
2017-08-26T00:51:06.756Z,53.50
2017-08-26T00:53:33.925Z,47.53
2017-08-26T00:56:00.058Z,46.37
2017-08-26T00:58:26.256Z,58.23
2017-08-26T01:00:52.554Z,55.23
2017-08-26T01:03:18.735Z,51.40
2017-08-26T01:05:44.891Z,54.60
2017-08-26T01:08:11.051Z,59.63
2017-08-26T01:10:37.262Z,54.33
2017-08-26T01:13:03.630Z,53.20
2017-08-26T01:15:29.817Z,50.27
2017-08-26T01:17:55.953Z,52.17
2017-08-26T01:20:22.200Z,46.17
2017-08-26T01:22:48.414Z,47.20
2017-08-26T01:25:14.632Z,47.83
2017-08-26T01:27:40.807Z,47.10
2017-08-26T01:30:06.990Z,49.97
2017-08-26T01:32:33.112Z,44.90
2017-08-26T01:34:59.265Z,41.37
2017-08-26T01:37:25.473Z,43.00
2017-08-26T01:39:51.606Z,50.43
2017-08-26T01:42:17.811Z,47.27
2017-08-26T01:44:43.938Z,46.17
2017-08-26T01:47:10.139Z,43.57
2017-08-26T01:49:36.360Z,43.80
2017-08-26T01:52:02.590Z,45.93
2017-08-26T01:54:28.776Z,41.00
2017-08-26T01:56:54.953Z,40.00
2017-08-26T01:59:21.078Z,83.40
2017-08-26T02:01:47.325Z,38.00
2017-08-26T02:04:19.601Z,38.00
2017-08-26T02:06:51.872Z,38.00
2017-08-26T02:09:24.247Z,39.23
2017-08-26T02:11:56.643Z,43.73
2017-08-26T02:14:29.177Z,42.00
2017-08-26T02:17:01.556Z,36.13
2017-08-26T02:19:33.937Z,40.00
2017-08-26T02:22:06.147Z,39.37
2017-08-26T02:24:38.559Z,36.83
2017-08-26T02:27:10.876Z,38.83
2017-08-26T02:29:43.299Z,35.40
2017-08-26T02:32:15.677Z,38.10
2017-08-26T02:34:48.069Z,37.33
2017-08-26T02:37:20.296Z,32.70
2017-08-26T02:39:52.632Z,42.63
2017-08-26T02:42:24.872Z,37.63
2017-08-26T02:44:57.343Z,40.73
2017-08-26T02:47:29.600Z,36.23
2017-08-26T02:50:01.768Z,37.07
2017-08-26T02:52:34.117Z,39.00
2017-08-26T02:55:06.282Z,36.43
2017-08-26T02:57:38.692Z,36.07
2017-08-26T03:00:11.017Z,38.77
2017-08-26T03:02:43.270Z,39.37
2017-08-26T03:05:15.780Z,38.03
2017-08-26T03:07:48.017Z,39.67
2017-08-26T03:10:20.381Z,39.17
2017-08-26T03:12:52.643Z,46.93
2017-08-26T03:15:24.963Z,40.70
2017-08-26T03:17:57.222Z,36.17
2017-08-26T03:20:29.681Z,39.97
2017-08-26T03:23:02.277Z,36.23
2017-08-26T03:25:34.628Z,33.87
2017-08-26T03:28:06.925Z,35.80
2017-08-26T03:30:39.277Z,33.03
2017-08-26T03:33:11.614Z,33.70
2017-08-26T03:35:43.871Z,32.97
2017-08-26T03:38:16.433Z,31.30
2017-08-26T03:40:48.736Z,31.93
2017-08-26T03:43:21.057Z,39.77
2017-08-26T03:45:53.182Z,37.10
2017-08-26T03:48:25.519Z,33.57
2017-08-26T03:50:58.009Z,35.80
2017-08-26T03:53:30.580Z,34.93
2017-08-26T03:56:02.947Z,32.50
2017-08-26T03:58:35.474Z,32.03
2017-08-26T04:01:07.896Z,34.23
2017-08-26T04:03:40.253Z,43.97
2017-08-26T04:06:12.494Z,32.13
2017-08-26T04:08:44.952Z,36.80
2017-08-26T04:11:17.225Z,32.83
2017-08-26T04:13:49.766Z,34.77
2017-08-26T04:16:22.115Z,45.07
2017-08-26T04:18:54.506Z,33.33
2017-08-26T04:21:26.877Z,32.23
2017-08-26T04:23:59.315Z,29.87
2017-08-26T04:26:31.752Z,32.27
2017-08-26T04:29:03.984Z,29.33
2017-08-26T04:31:36.401Z,30.30
2017-08-26T04:34:08.672Z,26.60
2017-08-26T04:36:41.078Z,25.80
2017-08-26T04:39:13.794Z,26.73
2017-08-26T04:41:46.123Z,28.23
2017-08-26T04:44:18.349Z,26.13
2017-08-26T04:46:50.678Z,28.93
2017-08-26T04:49:22.889Z,33.80
2017-08-26T04:51:55.241Z,27.00
2017-08-26T04:54:27.829Z,24.70
2017-08-26T04:57:00.064Z,25.20
2017-08-26T04:59:32.266Z,30.33
2017-08-26T05:02:04.663Z,37.03
2017-08-26T05:04:37.244Z,27.67
2017-08-26T05:07:09.538Z,26.30
2017-08-26T05:09:42.196Z,28.80
2017-08-26T05:12:14.523Z,26.30
2017-08-26T05:14:47.181Z,24.80
2017-08-26T05:17:19.376Z,25.93
2017-08-26T05:19:51.775Z,35.83
2017-08-26T05:22:24.138Z,25.43
2017-08-26T05:24:56.581Z,27.53
2017-08-26T05:27:28.908Z,26.60
2017-08-26T05:30:01.355Z,26.87
2017-08-26T05:32:33.785Z,22.67
2017-08-26T05:35:06.486Z,20.47
2017-08-26T05:37:38.716Z,28.13
2017-08-26T05:40:11.234Z,20.90
2017-08-26T05:42:43.526Z,22.53
2017-08-26T05:45:15.988Z,15.20
2017-08-26T05:47:49.058Z,18.13
2017-08-26T05:50:21.955Z,24.67
2017-08-26T05:52:54.193Z,30.63
2017-08-26T05:55:26.804Z,23.60
2017-08-26T05:57:58.954Z,29.57
2017-08-26T06:00:31.540Z,30.27
2017-08-26T06:03:03.738Z,22.07
2017-08-26T06:05:36.190Z,19.53
2017-08-26T06:08:08.543Z,20.60
2017-08-26T06:10:40.978Z,15.83
2017-08-26T06:13:13.304Z,23.50
2017-08-26T06:15:46.111Z,21.47
2017-08-26T06:18:18.269Z,21.10
2017-08-26T06:20:50.863Z,22.73
2017-08-26T06:23:23.134Z,20.90
2017-08-26T06:25:55.788Z,20.30
2017-08-26T06:28:28.163Z,15.23
2017-08-26T06:31:00.638Z,20.20
2017-08-26T06:33:32.892Z,13.83
2017-08-26T06:36:05.690Z,18.57
2017-08-26T06:38:37.917Z,13.33
2017-08-26T06:41:10.633Z,14.03
2017-08-26T06:43:42.796Z,17.90
2017-08-26T06:46:15.589Z,16.60
2017-08-26T06:48:47.900Z,11.10
2017-08-26T06:51:20.285Z,9.33
2017-08-26T06:53:52.525Z,9.10
2017-08-26T06:56:25.210Z,10.60
2017-08-26T06:58:57.493Z,9.37
2017-08-26T07:01:31.005Z,8.27
2017-08-26T07:04:03.224Z,9.13
2017-08-26T07:06:35.821Z,11.13
2017-08-26T07:09:08.096Z,14.30
2017-08-26T07:11:40.724Z,6.07
2017-08-26T07:14:12.961Z,8.87
2017-08-26T07:16:45.661Z,11.40
2017-08-26T07:19:18.073Z,8.80
2017-08-26T07:21:50.573Z,8.60
2017-08-26T07:24:23.008Z,8.40
2017-08-26T07:26:55.433Z,10.30
2017-08-26T07:29:27.700Z,8.07
2017-08-26T07:32:00.443Z,7.90
2017-08-26T07:34:32.751Z,11.30
2017-08-26T07:37:05.137Z,9.40
2017-08-26T07:39:37.509Z,9.13
2017-08-26T07:42:09.986Z,9.83
2017-08-26T07:44:42.228Z,7.23
2017-08-26T07:47:14.631Z,6.73
2017-08-26T07:49:47.029Z,14.00
2017-08-26T07:52:19.376Z,12.10
2017-08-26T07:54:51.691Z,9.93
2017-08-26T07:57:23.998Z,9.33
2017-08-26T07:59:56.227Z,6.20
2017-08-26T08:02:28.665Z,7.93
2017-08-26T08:05:01.024Z,12.70
2017-08-26T08:07:33.350Z,9.13
2017-08-26T08:10:05.643Z,22.73
2017-08-26T08:12:38.068Z,10.07
2017-08-26T08:15:10.403Z,12.40
2017-08-26T08:17:42.707Z,6.63
2017-08-26T08:20:14.981Z,7.60
2017-08-26T08:22:47.365Z,8.73
2017-08-26T08:25:19.643Z,12.57
2017-08-26T08:27:52.214Z,10.80
2017-08-26T08:30:25.312Z,8.73
2017-08-26T08:32:57.769Z,5.70
2017-08-26T08:35:30.087Z,6.90
2017-08-26T08:38:02.403Z,7.80
2017-08-26T08:40:34.766Z,6.13
2017-08-26T08:43:07.231Z,9.13
2017-08-26T08:45:39.491Z,10.70
2017-08-26T08:48:11.915Z,6.33
2017-08-26T08:50:44.424Z,6.33
2017-08-26T08:53:16.720Z,7.87
2017-08-26T08:55:48.914Z,8.93
2017-08-26T08:58:22.237Z,13.57
2017-08-26T09:00:54.589Z,10.60
2017-08-26T09:03:26.994Z,7.07
2017-08-26T09:05:59.304Z,5.70
2017-08-26T09:08:31.781Z,6.43
2017-08-26T09:11:04.465Z,6.97
2017-08-26T09:13:36.795Z,7.03
2017-08-26T09:16:08.892Z,9.30
2017-08-26T09:18:41.023Z,9.70
2017-08-26T09:21:13.324Z,11.70
2017-08-26T09:23:45.478Z,11.23
2017-08-26T09:26:17.810Z,7.67
2017-08-26T09:28:50.240Z,5.50
2017-08-26T09:31:22.549Z,8.93
2017-08-26T09:33:58.665Z,12.57
2017-08-26T09:36:31.284Z,6.80
2017-08-26T09:39:03.654Z,9.13
2017-08-26T09:41:35.897Z,7.27
2017-08-26T09:44:08.258Z,8.17
2017-08-26T09:46:40.750Z,8.00
2017-08-26T09:49:12.891Z,5.43
2017-08-26T09:51:45.399Z,9.97
2017-08-26T09:54:17.804Z,7.00
2017-08-26T09:56:50.153Z,9.80
2017-08-26T09:59:22.586Z,8.53
2017-08-26T10:01:55.347Z,8.40
2017-08-26T10:04:27.684Z,8.77
2017-08-26T10:06:59.978Z,16.93
2017-08-26T10:09:32.323Z,10.10
2017-08-26T10:12:04.630Z,12.80
2017-08-26T10:14:37.154Z,11.87
2017-08-26T10:17:09.557Z,5.13
2017-08-26T10:19:41.931Z,12.80
2017-08-26T10:22:14.123Z,7.87
2017-08-26T10:24:46.591Z,11.87
2017-08-26T10:27:18.826Z,6.10
2017-08-26T10:29:51.078Z,14.03
2017-08-26T10:32:23.437Z,6.33
2017-08-26T10:34:55.713Z,9.20
2017-08-26T10:37:28.071Z,7.23
2017-08-26T10:40:00.431Z,7.10
2017-08-26T10:42:32.795Z,8.27
2017-08-26T10:45:05.290Z,10.87
2017-08-26T10:47:37.445Z,6.83
2017-08-26T10:50:09.777Z,13.67
2017-08-26T10:52:42.223Z,10.20
2017-08-26T10:55:14.493Z,22.83
2017-08-26T10:57:46.962Z,10.30
2017-08-26T11:00:19.361Z,16.00
2017-08-26T11:02:51.681Z,11.57
2017-08-26T11:05:23.945Z,9.73
2017-08-26T11:07:56.406Z,8.83
2017-08-26T11:10:28.766Z,7.97
2017-08-26T11:13:00.971Z,13.40
2017-08-26T11:15:34.411Z,9.83
2017-08-26T11:18:06.727Z,9.00
2017-08-26T11:20:39.068Z,9.80
2017-08-26T11:23:11.772Z,8.00
2017-08-26T11:25:44.258Z,15.70
2017-08-26T11:28:16.675Z,8.93
2017-08-26T11:30:49.371Z,10.60
2017-08-26T11:33:21.730Z,8.30
2017-08-26T11:35:54.495Z,12.90
2017-08-26T11:38:27.072Z,14.87
2017-08-26T11:41:00.673Z,8.97
2017-08-26T11:43:32.988Z,12.43
2017-08-26T11:46:06.709Z,12.20
2017-08-26T11:48:39.064Z,11.57
2017-08-26T11:51:11.771Z,12.47
2017-08-26T11:53:43.926Z,13.20
2017-08-26T11:56:16.671Z,12.40
2017-08-26T11:58:49.265Z,19.23
2017-08-26T12:01:22.051Z,16.00
2017-08-26T12:03:54.192Z,11.07
2017-08-26T12:06:26.752Z,12.43
2017-08-26T12:08:52.968Z,14.70
2017-08-26T12:11:19.170Z,24.33
2017-08-26T12:13:46.580Z,10.10
2017-08-26T12:16:12.750Z,12.60
2017-08-26T12:18:38.927Z,13.60
2017-08-26T12:21:05.558Z,12.03
2017-08-26T12:23:31.801Z,10.70
2017-08-26T12:25:57.969Z,11.17
2017-08-26T12:28:24.596Z,15.87
2017-08-26T12:30:50.779Z,16.67
2017-08-26T12:33:18.186Z,18.33
2017-08-26T12:35:44.694Z,12.73
2017-08-26T12:38:10.849Z,13.43
2017-08-26T12:40:39.160Z,17.63
2017-08-26T12:43:05.696Z,14.37
2017-08-26T12:45:31.939Z,13.53
2017-08-26T12:47:58.184Z,11.07
2017-08-26T12:50:25.808Z,11.47
2017-08-26T12:52:52.089Z,11.50
2017-08-26T12:55:18.277Z,15.93
2017-08-26T12:57:46.724Z,11.77
2017-08-26T13:00:13.272Z,23.37
2017-08-26T13:02:39.510Z,15.20
2017-08-26T13:05:06.153Z,18.03
2017-08-26T13:07:32.329Z,16.67
2017-08-26T13:09:58.486Z,14.80
2017-08-26T13:12:25.072Z,11.57
2017-08-26T13:14:51.275Z,11.50
2017-08-26T13:17:17.620Z,12.30
2017-08-26T13:19:44.097Z,16.83
2017-08-26T13:22:10.434Z,24.23
2017-08-26T13:24:37.069Z,16.27
2017-08-26T13:27:03.679Z,14.57
2017-08-26T13:29:31.180Z,13.60
2017-08-26T13:31:57.425Z,16.73
2017-08-26T13:34:24.078Z,17.70
2017-08-26T13:36:50.381Z,20.10
2017-08-26T13:39:16.685Z,14.10
2017-08-26T13:41:43.225Z,16.77
2017-08-26T13:44:10.089Z,15.13
2017-08-26T13:46:36.337Z,21.40
2017-08-26T13:49:03.169Z,16.00
2017-08-26T13:51:29.465Z,18.83
2017-08-26T13:53:55.685Z,14.63
2017-08-26T13:56:23.246Z,16.67
2017-08-26T13:58:52.698Z,15.07
2017-08-26T14:01:19.429Z,26.37
2017-08-26T14:03:46.291Z,17.03
2017-08-26T14:06:12.517Z,11.77
2017-08-26T14:08:38.734Z,17.97
2017-08-26T14:11:05.093Z,16.13
2017-08-26T14:13:31.369Z,15.97
2017-08-26T14:15:59.010Z,21.40
2017-08-26T14:18:25.366Z,12.97
2017-08-26T14:20:51.623Z,14.10
2017-08-26T14:23:20.341Z,18.87
2017-08-26T14:25:46.541Z,19.13
2017-08-26T14:28:12.886Z,22.07
2017-08-26T14:30:39.096Z,27.43
2017-08-26T14:33:05.489Z,19.13
2017-08-26T14:35:31.822Z,19.47
2017-08-26T14:37:58.045Z,19.50
2017-08-26T14:40:24.547Z,20.53
2017-08-26T14:42:50.712Z,14.67
2017-08-26T14:45:16.877Z,12.97
2017-08-26T14:47:43.358Z,20.13
2017-08-26T14:50:09.604Z,19.33
2017-08-26T14:52:35.760Z,17.00
2017-08-26T14:55:02.247Z,19.43
2017-08-26T14:57:28.520Z,23.73
2017-08-26T14:59:55.039Z,19.53
2017-08-26T15:02:21.682Z,19.10
2017-08-26T15:04:47.981Z,18.63
2017-08-26T15:07:14.209Z,21.83
2017-08-26T15:09:41.021Z,16.50
2017-08-26T15:12:07.204Z,19.97
2017-08-26T15:14:34.151Z,21.27
2017-08-26T15:17:01.089Z,17.70
2017-08-26T15:19:27.475Z,18.80
2017-08-26T15:21:53.684Z,22.13
2017-08-26T15:24:21.460Z,18.37
2017-08-26T15:26:47.623Z,28.03
2017-08-26T15:29:13.854Z,19.27
2017-08-26T15:31:40.085Z,19.60
2017-08-26T15:34:07.534Z,23.90
2017-08-26T15:36:33.665Z,31.33
2017-08-26T15:39:00.135Z,19.47
2017-08-26T15:41:26.375Z,23.77
2017-08-26T15:43:52.656Z,24.47
2017-08-26T15:46:18.806Z,21.40
2017-08-26T15:48:45.038Z,27.63
2017-08-26T15:51:11.412Z,24.07
2017-08-26T15:53:37.623Z,27.97
2017-08-26T15:56:03.826Z,24.83
2017-08-26T15:58:30.053Z,27.47
2017-08-26T16:00:56.359Z,22.63
2017-08-26T16:03:22.608Z,26.63
2017-08-26T16:05:48.865Z,22.90
2017-08-26T16:08:15.239Z,26.73
2017-08-26T16:10:41.489Z,26.90
2017-08-26T16:13:07.636Z,24.33
2017-08-26T16:15:33.890Z,28.83
2017-08-26T16:18:00.472Z,33.30
2017-08-26T16:20:26.576Z,28.70
2017-08-26T16:22:52.800Z,27.27
2017-08-26T16:25:19.086Z,26.80
2017-08-26T16:27:45.404Z,23.23
2017-08-26T16:30:11.779Z,23.07
2017-08-26T16:32:38.053Z,30.03
2017-08-26T16:35:04.236Z,23.27
2017-08-26T16:37:30.454Z,25.60
2017-08-26T16:39:56.679Z,29.20
2017-08-26T16:42:23.096Z,23.27
2017-08-26T16:44:49.398Z,28.23
2017-08-26T16:47:15.699Z,24.97
2017-08-26T16:49:42.114Z,29.33
2017-08-26T16:52:08.533Z,30.20
2017-08-26T16:54:34.900Z,26.07
2017-08-26T16:57:01.365Z,25.80
2017-08-26T16:59:28.006Z,27.33
2017-08-26T17:01:54.613Z,31.23
2017-08-26T17:04:22.060Z,27.83
2017-08-26T17:06:48.873Z,29.23
2017-08-26T17:09:15.298Z,24.33
2017-08-26T17:11:41.466Z,28.53
2017-08-26T17:14:07.972Z,27.30
2017-08-26T17:16:34.465Z,31.57
2017-08-26T17:19:00.620Z,37.83
2017-08-26T17:21:27.299Z,31.80
2017-08-26T17:23:53.490Z,32.47
2017-08-26T17:26:19.714Z,27.10
2017-08-26T17:28:46.362Z,36.30
2017-08-26T17:31:12.570Z,33.90
2017-08-26T17:33:38.812Z,30.53
2017-08-26T17:36:05.224Z,30.47
2017-08-26T17:38:31.478Z,31.43
2017-08-26T17:40:57.747Z,34.40
2017-08-26T17:43:24.225Z,33.10
2017-08-26T17:45:50.328Z,33.20
2017-08-26T17:48:16.590Z,35.23
2017-08-26T17:50:43.246Z,35.97
2017-08-26T17:53:16.445Z,31.70
2017-08-26T17:55:42.659Z,37.70
2017-08-26T17:58:08.927Z,36.23
2017-08-26T18:00:35.218Z,33.57
2017-08-26T18:03:01.578Z,38.57
2017-08-26T18:05:27.786Z,37.03
2017-08-26T18:07:53.968Z,39.43
2017-08-26T18:10:20.153Z,35.37
2017-08-26T18:12:46.370Z,36.77
2017-08-26T18:15:12.484Z,29.60
2017-08-26T18:17:38.898Z,28.57
2017-08-26T18:20:05.081Z,29.33
2017-08-26T18:22:31.517Z,28.20
2017-08-26T18:24:57.903Z,25.57
2017-08-26T18:27:24.645Z,25.63
2017-08-26T18:29:51.022Z,26.20
2017-08-26T18:32:17.264Z,31.00
2017-08-26T18:34:43.560Z,27.33
2017-08-26T18:37:09.791Z,32.80
2017-08-26T18:39:36.065Z,25.83
2017-08-26T18:42:02.232Z,26.87
2017-08-26T18:44:28.346Z,25.23
2017-08-26T18:46:54.634Z,26.50
2017-08-26T18:49:21.079Z,25.63
2017-08-26T18:51:47.313Z,28.83
2017-08-26T18:54:13.570Z,29.70
2017-08-26T18:56:39.741Z,24.83
2017-08-26T18:59:06.100Z,23.53
2017-08-26T19:01:32.521Z,29.97
2017-08-26T19:03:58.808Z,28.20
2017-08-26T19:06:24.967Z,27.93
2017-08-26T19:08:51.287Z,22.83
2017-08-26T19:11:17.500Z,25.57
2017-08-26T19:13:43.823Z,27.97
2017-08-26T19:16:10.178Z,29.63
2017-08-26T19:18:36.648Z,32.70
2017-08-26T19:21:02.931Z,30.90
2017-08-26T19:23:29.230Z,27.33
2017-08-26T19:25:56.396Z,35.97
2017-08-26T19:28:22.619Z,25.43
2017-08-26T19:30:48.824Z,28.23
2017-08-26T19:33:15.067Z,28.57
2017-08-26T19:35:41.310Z,31.17
2017-08-26T19:38:07.938Z,29.67
2017-08-26T19:40:34.219Z,29.37
2017-08-26T19:43:00.587Z,33.77
2017-08-26T19:45:27.043Z,62.03
2017-08-26T19:47:53.412Z,31.93
2017-08-26T19:50:19.740Z,39.03
2017-08-26T19:52:46.127Z,29.60
2017-08-26T19:55:12.478Z,31.77
2017-08-26T19:57:38.777Z,32.17
2017-08-26T20:00:04.987Z,44.13
2017-08-26T20:02:32.276Z,31.87
2017-08-26T20:04:59.943Z,47.23
2017-08-26T20:07:26.268Z,39.43
2017-08-26T20:09:52.688Z,35.63
2017-08-26T20:12:19.506Z,34.33
2017-08-26T20:14:52.030Z,36.43
2017-08-26T20:17:19.395Z,41.10
2017-08-26T20:19:45.930Z,37.23
2017-08-26T20:22:13.906Z,32.30
2017-08-26T20:24:40.343Z,37.23
2017-08-26T20:27:06.869Z,45.57
2017-08-26T20:29:33.887Z,34.50
2017-08-26T20:32:00.979Z,30.73
2017-08-26T20:34:27.386Z,37.33
2017-08-26T20:36:54.451Z,42.30
2017-08-26T20:39:20.878Z,37.23
2017-08-26T20:41:47.098Z,35.13
2017-08-26T20:44:13.470Z,37.80
2017-08-26T20:46:40.397Z,39.10
2017-08-26T20:49:06.853Z,45.83
2017-08-26T20:51:33.307Z,42.60
2017-08-26T20:53:59.942Z,42.33
2017-08-26T20:56:26.494Z,39.87
2017-08-26T20:58:53.047Z,42.50
2017-08-26T21:01:19.986Z,45.67
2017-08-26T21:03:46.784Z,50.00
2017-08-26T21:06:13.636Z,45.23
2017-08-26T21:08:42.227Z,43.77
2017-08-26T21:11:08.908Z,39.93
2017-08-26T21:13:35.475Z,42.20
2017-08-26T21:16:01.881Z,44.73
2017-08-26T21:18:28.848Z,45.97
2017-08-26T21:20:55.498Z,41.53
2017-08-26T21:23:21.986Z,44.57
2017-08-26T21:25:48.867Z,54.77
2017-08-26T21:28:16.328Z,43.10
2017-08-26T21:30:42.772Z,41.27
2017-08-26T21:33:10.226Z,56.07
2017-08-26T21:35:36.849Z,56.20
2017-08-26T21:38:04.573Z,38.67
2017-08-26T21:40:31.476Z,40.13
2017-08-26T21:42:57.942Z,32.63
2017-08-26T21:45:25.163Z,34.67
2017-08-26T21:47:52.051Z,41.70
2017-08-26T21:50:18.850Z,38.30
2017-08-26T21:52:46.585Z,38.07
2017-08-26T21:55:13.220Z,37.83
2017-08-26T21:57:46.827Z,36.60
2017-08-26T22:00:13.820Z,42.57
2017-08-26T22:02:41.797Z,43.20
2017-08-26T22:05:12.622Z,38.43
2017-08-26T22:07:38.975Z,41.03
2017-08-26T22:10:05.398Z,49.13
2017-08-26T22:12:36.369Z,44.47
2017-08-26T22:15:02.644Z,43.27
2017-08-26T22:17:29.105Z,47.80
2017-08-26T22:19:56.455Z,39.03
2017-08-26T22:22:22.790Z,47.53
2017-08-26T22:24:49.399Z,48.57
2017-08-26T22:27:16.057Z,44.87
2017-08-26T22:29:42.335Z,44.27
2017-08-26T22:32:09.280Z,59.57
2017-08-26T22:34:36.873Z,58.13
2017-08-26T22:37:03.222Z,51.93
2017-08-26T22:39:29.631Z,52.43
2017-08-26T22:41:55.866Z,51.07
2017-08-26T22:44:22.114Z,48.40
2017-08-26T22:46:48.526Z,45.90
2017-08-26T22:49:15.100Z,48.30
2017-08-26T22:51:41.516Z,48.30
2017-08-26T22:54:08.945Z,44.50
2017-08-26T22:56:35.607Z,50.93
2017-08-26T22:59:02.633Z,47.90
2017-08-26T23:01:29.025Z,56.63
2017-08-26T23:03:55.634Z,47.60
2017-08-26T23:06:21.895Z,46.53
2017-08-26T23:08:48.108Z,43.37
2017-08-26T23:11:14.701Z,53.70
2017-08-26T23:13:42.210Z,45.13
2017-08-26T23:16:08.889Z,46.50
2017-08-26T23:18:35.445Z,45.50
2017-08-26T23:21:02.084Z,45.43
2017-08-26T23:23:28.389Z,49.63
2017-08-26T23:25:54.932Z,47.90
2017-08-26T23:28:21.587Z,45.07
2017-08-26T23:30:48.483Z,46.33
2017-08-26T23:33:15.151Z,45.33
2017-08-26T23:35:41.533Z,45.70
2017-08-26T23:38:07.794Z,48.07
2017-08-26T23:40:34.474Z,50.13
2017-08-26T23:43:00.651Z,45.83
2017-08-26T23:45:26.931Z,45.90
2017-08-26T23:47:53.450Z,49.13
2017-08-26T23:50:19.645Z,49.10
2017-08-26T23:52:47.654Z,47.27
2017-08-26T23:55:14.192Z,48.37
2017-08-26T23:57:40.436Z,53.87
